createdAt,value
2018-12-17T00:00:05.618Z,4.47
2018-12-17T00:02:33.956Z,4.12
2018-12-17T00:05:02.412Z,4.12
2018-12-17T00:07:30.755Z,4.33
2018-12-17T00:09:59.076Z,4.75
2018-12-17T00:12:27.520Z,4.45
2018-12-17T00:14:55.834Z,5.35
2018-12-17T00:17:24.220Z,6.55
2018-12-17T00:19:52.524Z,7.23
2018-12-17T00:22:20.829Z,7.95
2018-12-17T00:24:49.166Z,8.78
2018-12-17T00:27:17.475Z,6.67
2018-12-17T00:29:46.009Z,14.33
2018-12-17T00:32:14.357Z,15.50
2018-12-17T00:34:42.681Z,12.07
2018-12-17T00:37:11.036Z,9.70
2018-12-17T00:39:39.362Z,12.53
2018-12-17T00:42:07.705Z,23.60
2018-12-17T00:44:36.469Z,18.02
2018-12-17T00:47:04.984Z,16.87
2018-12-17T00:49:33.409Z,16.77
2018-12-17T00:52:01.712Z,9.03
2018-12-17T00:54:30.147Z,13.70
2018-12-17T00:56:58.592Z,12.23
2018-12-17T00:59:26.909Z,18.20
2018-12-17T01:01:55.216Z,12.82
2018-12-17T01:04:23.824Z,9.65
2018-12-17T01:06:52.163Z,19.23
2018-12-17T01:09:20.564Z,9.88
2018-12-17T01:11:48.996Z,17.80
2018-12-17T01:14:17.550Z,8.68
2018-12-17T01:16:45.898Z,20.55
2018-12-17T01:19:15.264Z,18.60
2018-12-17T01:21:43.865Z,17.70
2018-12-17T01:24:12.222Z,18.60
2018-12-17T01:26:40.515Z,13.30
2018-12-17T01:29:08.840Z,11.22
2018-12-17T01:31:37.457Z,17.52
2018-12-17T01:34:06.448Z,12.20
2018-12-17T01:36:34.740Z,23.35
2018-12-17T01:39:03.583Z,15.20
2018-12-17T01:41:31.916Z,17.95
2018-12-17T01:44:00.228Z,17.20
2018-12-17T01:46:31.855Z,11.43
2018-12-17T01:49:00.268Z,12.07
2018-12-17T01:51:28.620Z,8.73
2018-12-17T01:53:57.056Z,14.15
2018-12-17T01:56:25.645Z,20.45
2018-12-17T01:58:53.943Z,11.05
2018-12-17T02:01:22.272Z,8.03
2018-12-17T02:03:50.632Z,12.30
2018-12-17T02:06:19.044Z,9.58
2018-12-17T02:08:47.380Z,12.33
2018-12-17T02:11:15.668Z,12.07
2018-12-17T02:13:44.217Z,5.33
2018-12-17T02:16:12.584Z,8.83
2018-12-17T02:18:40.960Z,5.00
2018-12-17T02:21:09.515Z,12.65
2018-12-17T02:23:37.840Z,12.07
2018-12-17T02:26:06.172Z,10.48
2018-12-17T02:28:36.288Z,9.85
2018-12-17T02:31:04.905Z,7.58
2018-12-17T02:33:33.208Z,10.18
2018-12-17T02:36:01.551Z,10.43
2018-12-17T02:38:29.848Z,11.37
2018-12-17T02:40:58.809Z,8.18
2018-12-17T02:43:27.125Z,8.33
2018-12-17T02:45:55.471Z,8.90
2018-12-17T02:48:23.892Z,5.65
2018-12-17T02:50:52.500Z,6.65
2018-12-17T02:53:20.895Z,6.08
2018-12-17T02:55:52.777Z,6.70
2018-12-17T02:58:21.128Z,5.45
2018-12-17T03:00:49.680Z,8.80
2018-12-17T03:03:18.060Z,8.28
2018-12-17T03:05:46.384Z,9.93
2018-12-17T03:08:14.797Z,9.87
2018-12-17T03:10:43.157Z,10.98
2018-12-17T03:13:11.661Z,9.53
2018-12-17T03:15:40.856Z,11.10
2018-12-17T03:18:09.561Z,18.07
2018-12-17T03:20:38.300Z,9.65
2018-12-17T03:23:06.866Z,5.78
2018-12-17T03:25:35.166Z,8.35
2018-12-17T03:28:03.461Z,15.75
2018-12-17T03:30:31.799Z,13.58
2018-12-17T03:33:03.150Z,9.98
2018-12-17T03:35:31.574Z,13.30
2018-12-17T03:37:59.977Z,9.53
2018-12-17T03:40:28.308Z,8.33
2018-12-17T03:42:56.885Z,8.75
2018-12-17T03:45:26.173Z,11.15
2018-12-17T03:47:54.495Z,10.25
2018-12-17T03:50:22.832Z,7.22
2018-12-17T03:52:51.132Z,7.28
2018-12-17T03:55:20.300Z,6.28
2018-12-17T03:57:48.730Z,6.30
2018-12-17T04:00:17.059Z,8.70
2018-12-17T04:02:45.512Z,4.58
2018-12-17T04:05:13.940Z,4.70
2018-12-17T04:07:45.300Z,5.00
2018-12-17T04:10:13.617Z,4.50
2018-12-17T04:12:42.017Z,3.90
2018-12-17T04:15:11.009Z,4.05
2018-12-17T04:17:39.500Z,3.98
2018-12-17T04:20:07.874Z,3.30
2018-12-17T04:22:36.168Z,4.07
2018-12-17T04:25:05.631Z,3.80
2018-12-17T04:27:33.993Z,3.80
2018-12-17T04:30:02.326Z,3.93
2018-12-17T04:32:30.706Z,4.20
2018-12-17T04:34:59.087Z,4.00
2018-12-17T04:37:27.450Z,3.53
2018-12-17T04:39:55.749Z,4.93
2018-12-17T04:42:24.070Z,4.53
2018-12-17T04:44:52.404Z,4.53
2018-12-17T04:47:20.705Z,4.73
2018-12-17T04:49:49.001Z,5.00
2018-12-17T04:52:17.433Z,4.03
2018-12-17T04:54:45.742Z,4.80
2018-12-17T04:57:14.099Z,3.93
2018-12-17T04:59:42.903Z,3.73
2018-12-17T05:02:11.309Z,3.70
2018-12-17T05:04:40.987Z,3.57
2018-12-17T05:07:09.345Z,3.47
2018-12-17T05:09:37.755Z,4.17
2018-12-17T05:12:06.153Z,3.90
2018-12-17T05:14:34.472Z,4.00
2018-12-17T05:17:02.997Z,4.33
2018-12-17T05:19:31.359Z,3.57
2018-12-17T05:22:00.060Z,3.50
2018-12-17T05:24:28.489Z,3.07
2018-12-17T05:26:56.820Z,3.43
2018-12-17T05:29:25.880Z,3.70
2018-12-17T05:31:54.292Z,3.40
2018-12-17T05:34:22.588Z,3.93
2018-12-17T05:36:51.072Z,3.60
2018-12-17T05:39:19.958Z,3.83
2018-12-17T05:41:48.288Z,3.70
2018-12-17T05:44:16.590Z,3.90
2018-12-17T05:46:45.725Z,4.60
2018-12-17T05:49:14.128Z,5.10
2018-12-17T05:51:42.538Z,4.80
2018-12-17T05:54:10.838Z,4.67
2018-12-17T05:56:39.197Z,6.40
2018-12-17T05:59:07.783Z,7.17
2018-12-17T06:01:36.127Z,6.08
2018-12-17T06:04:05.056Z,5.53
2018-12-17T06:06:33.559Z,6.00
2018-12-17T06:09:02.331Z,7.90
2018-12-17T06:11:31.384Z,10.50
2018-12-17T06:13:59.895Z,11.47
2018-12-17T06:16:28.368Z,6.47
2018-12-17T06:18:56.688Z,4.60
2018-12-17T06:21:25.345Z,7.17
2018-12-17T06:23:53.894Z,10.27
2018-12-17T06:26:22.365Z,7.63
2018-12-17T06:28:50.680Z,5.70
2018-12-17T06:31:19.060Z,8.97
2018-12-17T06:33:47.480Z,7.97
2018-12-17T06:36:15.816Z,5.77
2018-12-17T06:38:44.103Z,4.70
2018-12-17T06:41:12.424Z,7.23
2018-12-17T06:43:40.735Z,5.10
2018-12-17T06:46:09.173Z,7.07
2018-12-17T06:48:37.712Z,8.47
2018-12-17T06:51:06.008Z,8.10
2018-12-17T06:53:34.301Z,8.53
2018-12-17T06:56:02.589Z,9.90
2018-12-17T06:58:31.168Z,7.07
2018-12-17T07:00:59.569Z,6.40
2018-12-17T07:03:28.001Z,6.70
2018-12-17T07:05:56.336Z,8.80
2018-12-17T07:08:24.792Z,8.30
2018-12-17T07:10:53.192Z,6.90
2018-12-17T07:13:21.583Z,7.13
2018-12-17T07:15:49.893Z,8.37
2018-12-17T07:18:18.267Z,7.92
2018-12-17T07:20:46.553Z,9.10
2018-12-17T07:23:14.956Z,10.83
2018-12-17T07:25:43.256Z,6.00
2018-12-17T07:28:12.324Z,10.77
2018-12-17T07:31:44.028Z,8.87
2018-12-17T07:34:13.112Z,5.63
2018-12-17T07:36:41.424Z,7.20
2018-12-17T07:39:09.716Z,5.47
2018-12-17T07:41:38.209Z,5.47
2018-12-17T07:44:06.573Z,5.40
2018-12-17T07:46:34.908Z,4.93
2018-12-17T07:49:03.295Z,5.63
2018-12-17T07:51:32.051Z,4.70
2018-12-17T07:54:00.336Z,5.30
2018-12-17T07:56:29.440Z,5.33
2018-12-17T07:58:57.730Z,5.40
2018-12-17T08:01:26.061Z,4.47
2018-12-17T08:03:54.448Z,5.53
2018-12-17T08:06:23.419Z,8.13
2018-12-17T08:08:51.732Z,6.20
2018-12-17T08:11:20.055Z,5.00
2018-12-17T08:13:48.392Z,5.63
2018-12-17T08:16:17.245Z,6.00
2018-12-17T08:18:45.580Z,6.87
2018-12-17T08:21:13.976Z,8.60
2018-12-17T08:23:42.408Z,5.77
2018-12-17T08:26:10.714Z,3.97
2018-12-17T08:28:39.071Z,9.10
2018-12-17T08:31:07.466Z,7.07
2018-12-17T08:33:35.770Z,5.10
2018-12-17T08:36:04.255Z,6.17
2018-12-17T08:38:32.561Z,5.90
2018-12-17T08:41:00.862Z,5.67
2018-12-17T08:43:29.198Z,3.13
2018-12-17T08:45:57.618Z,5.83
2018-12-17T08:48:25.909Z,4.00
2018-12-17T08:50:54.212Z,3.30
2018-12-17T08:53:22.508Z,3.00
2018-12-17T08:55:50.860Z,4.00
2018-12-17T08:58:19.359Z,3.73
2018-12-17T09:00:47.783Z,2.60
2018-12-17T09:03:16.140Z,3.77
2018-12-17T09:05:44.634Z,3.00
2018-12-17T09:08:12.966Z,2.50
2018-12-17T09:10:41.299Z,2.87
2018-12-17T09:13:09.711Z,2.47
2018-12-17T09:15:38.033Z,2.60
2018-12-17T09:18:07.361Z,2.50
2018-12-17T09:20:35.831Z,2.10
2018-12-17T09:23:04.331Z,2.30
2018-12-17T09:25:32.971Z,2.27
2018-12-17T09:28:01.439Z,2.23
2018-12-17T09:30:29.741Z,1.90
2018-12-17T09:32:58.202Z,1.90
2018-12-17T09:35:26.463Z,2.10
2018-12-17T09:37:54.788Z,2.00
2018-12-17T09:40:23.159Z,2.03
2018-12-17T09:42:51.499Z,1.77
2018-12-17T09:45:19.941Z,2.10
2018-12-17T09:47:48.272Z,2.27
2018-12-17T09:50:16.790Z,1.87
2018-12-17T09:52:45.175Z,1.77
2018-12-17T09:55:13.592Z,1.90
2018-12-17T09:57:41.960Z,1.87
2018-12-17T10:00:10.516Z,1.83
2018-12-17T10:02:38.836Z,1.80
2018-12-17T10:05:07.535Z,1.83
2018-12-17T10:07:35.818Z,1.40
2018-12-17T10:10:04.584Z,1.67
2018-12-17T10:12:32.926Z,1.40
2018-12-17T10:15:01.312Z,1.40
2018-12-17T10:17:29.649Z,1.60
2018-12-17T10:19:57.965Z,1.60
2018-12-17T10:22:26.389Z,1.37
2018-12-17T10:24:55.286Z,1.20
2018-12-17T10:27:23.600Z,1.13
2018-12-17T10:29:52.932Z,1.40
2018-12-17T10:32:21.234Z,1.53
2018-12-17T10:34:49.529Z,1.67
2018-12-17T10:37:17.844Z,1.40
2018-12-17T10:39:46.241Z,1.07
2018-12-17T10:42:14.687Z,1.63
2018-12-17T10:44:43.026Z,1.23
2018-12-17T10:47:11.357Z,1.67
2018-12-17T10:49:39.664Z,1.40
2018-12-17T10:52:08.029Z,1.20
2018-12-17T10:54:36.360Z,1.10
2018-12-17T10:57:04.666Z,1.17
2018-12-17T10:59:33.001Z,1.67
2018-12-17T11:02:20.420Z,1.40
2018-12-17T11:04:54.904Z,1.33
2018-12-17T11:07:23.292Z,0.90
2018-12-17T11:09:51.620Z,1.23
2018-12-17T11:12:20.274Z,0.80
2018-12-17T11:14:48.709Z,1.07
2018-12-17T11:17:17.270Z,1.00
2018-12-17T11:19:45.572Z,1.17
2018-12-17T11:22:13.867Z,1.00
2018-12-17T11:24:42.260Z,0.90
2018-12-17T11:27:11.296Z,1.20
2018-12-17T11:29:39.583Z,1.00
2018-12-17T11:32:11.603Z,0.97
2018-12-17T11:34:38.800Z,1.37
2018-12-17T11:37:07.116Z,0.80
2018-12-17T11:39:35.518Z,0.67
2018-12-17T11:42:03.951Z,0.97
2018-12-17T11:44:32.264Z,0.83
2018-12-17T11:47:00.675Z,1.07
2018-12-17T11:49:28.983Z,1.20
2018-12-17T11:51:57.358Z,1.00
2018-12-17T11:54:25.657Z,1.00
2018-12-17T11:59:03.141Z,0.87
2018-12-17T12:01:31.452Z,1.20
2018-12-17T12:03:59.762Z,1.17
2018-12-17T12:06:28.093Z,1.10
2018-12-17T12:08:56.691Z,1.00
2018-12-17T12:11:25.051Z,0.90
2018-12-17T12:13:53.366Z,0.80
2018-12-17T12:16:21.864Z,1.07
2018-12-17T12:18:50.185Z,0.90
2018-12-17T12:21:18.549Z,0.90
2018-12-17T12:23:46.856Z,0.93
2018-12-17T12:26:15.205Z,0.90
2018-12-17T12:28:43.480Z,1.10
2018-12-17T12:31:11.781Z,1.00
2018-12-17T12:33:40.068Z,0.90
2018-12-17T12:36:08.380Z,1.03
2018-12-17T12:38:37.088Z,0.80
2018-12-17T12:41:05.529Z,0.77
2018-12-17T12:43:33.904Z,0.80
2018-12-17T12:46:02.263Z,0.80
2018-12-17T12:48:31.212Z,0.90
2018-12-17T12:50:59.514Z,0.80
2018-12-17T12:53:27.800Z,0.90
2018-12-17T12:55:56.107Z,0.63
2018-12-17T12:58:24.407Z,1.00
2018-12-17T13:00:52.736Z,1.17
2018-12-17T13:03:21.023Z,0.80
2018-12-17T13:05:49.323Z,0.90
2018-12-17T13:08:17.614Z,1.00
2018-12-17T13:10:46.051Z,0.83
2018-12-17T13:13:14.396Z,0.63
2018-12-17T13:15:42.839Z,1.00
2018-12-17T13:18:11.166Z,1.40
2018-12-17T13:20:39.526Z,1.00
2018-12-17T13:23:07.832Z,0.90
2018-12-17T13:25:40.482Z,1.03
2018-12-17T13:28:08.792Z,1.10
2018-12-17T13:30:37.420Z,0.70
2018-12-17T13:33:05.967Z,1.00
2018-12-17T13:35:34.273Z,0.80
2018-12-17T13:38:02.599Z,1.00
2018-12-17T13:40:30.927Z,0.90
2018-12-17T13:42:59.240Z,0.87
2018-12-17T13:45:27.747Z,1.00
2018-12-17T13:47:56.035Z,0.60
2018-12-17T13:50:30.172Z,0.70
2018-12-17T13:53:04.244Z,0.90
2018-12-17T13:55:32.836Z,0.80
2018-12-17T13:58:01.144Z,1.00
2018-12-17T14:00:29.669Z,1.13
2018-12-17T14:02:57.959Z,0.80
2018-12-17T14:05:26.413Z,0.80
2018-12-17T14:07:54.732Z,0.90
2018-12-17T14:10:28.472Z,0.80
2018-12-17T14:12:57.020Z,1.03
2018-12-17T14:15:29.590Z,1.00
2018-12-17T14:18:01.113Z,1.00
2018-12-17T14:20:34.784Z,0.73
2018-12-17T14:23:03.168Z,0.80
2018-12-17T14:25:31.591Z,0.70
2018-12-17T14:27:59.973Z,0.97
2018-12-17T14:30:28.276Z,0.90
2018-12-17T14:32:56.584Z,1.47
2018-12-17T14:35:24.880Z,0.70
2018-12-17T14:37:58.772Z,1.00
2018-12-17T14:40:27.152Z,1.00
2018-12-17T14:42:55.609Z,0.73
2018-12-17T14:45:24.007Z,0.90
2018-12-17T14:47:52.343Z,1.07
2018-12-17T14:50:20.833Z,0.80
2018-12-17T14:52:49.147Z,1.30
2018-12-17T14:55:17.503Z,0.83
2018-12-17T14:57:45.815Z,1.00
2018-12-17T15:00:14.434Z,1.33
2018-12-17T15:02:42.737Z,1.00
2018-12-17T15:05:11.136Z,0.90
2018-12-17T15:07:39.581Z,0.80
2018-12-17T15:10:08.264Z,1.10
2018-12-17T15:12:36.560Z,0.80
2018-12-17T15:15:06.680Z,1.17
2018-12-17T15:17:35.004Z,1.10
2018-12-17T15:20:03.389Z,1.17
2018-12-17T15:22:31.723Z,0.87
2018-12-17T15:25:00.488Z,0.80
2018-12-17T15:27:28.909Z,1.00
2018-12-17T15:29:58.042Z,0.80
2018-12-17T15:32:26.377Z,0.70
2018-12-17T15:34:54.790Z,0.83
2018-12-17T15:37:23.398Z,0.97
2018-12-17T15:39:51.846Z,0.83
2018-12-17T15:42:21.939Z,0.97
2018-12-17T15:44:50.498Z,0.80
2018-12-17T15:47:18.789Z,0.90
2018-12-17T15:49:47.073Z,0.80
2018-12-17T15:52:15.369Z,0.90
2018-12-17T15:54:43.677Z,1.03
2018-12-17T15:57:12.180Z,1.00
2018-12-17T15:59:40.665Z,1.07
2018-12-17T16:02:08.955Z,0.80
2018-12-17T16:04:37.300Z,1.00
2018-12-17T16:07:05.610Z,0.80
2018-12-17T16:09:33.900Z,1.03
2018-12-17T16:12:02.302Z,0.87
2018-12-17T16:14:31.181Z,0.80
2018-12-17T16:16:59.764Z,0.80
2018-12-17T16:19:28.130Z,0.70
2018-12-17T16:21:56.433Z,0.70
2018-12-17T16:24:24.764Z,0.70
2018-12-17T16:26:53.111Z,0.93
2018-12-17T16:29:21.578Z,0.63
2018-12-17T16:31:57.017Z,0.90
2018-12-17T16:34:20.310Z,0.97
2018-12-17T16:36:48.899Z,0.83
2018-12-17T16:39:17.239Z,0.80
2018-12-17T16:41:45.622Z,0.77
2018-12-17T16:44:13.939Z,1.00
2018-12-17T16:46:42.264Z,0.87
2018-12-17T16:49:11.202Z,0.87
2018-12-17T16:51:39.460Z,0.87
2018-12-17T16:54:07.824Z,0.90
2018-12-17T16:56:36.219Z,0.77
2018-12-17T16:59:04.556Z,0.83
2018-12-17T17:01:32.920Z,0.70
2018-12-17T17:04:01.476Z,1.00
2018-12-17T17:06:30.010Z,0.90
2018-12-17T17:08:58.955Z,0.63
2018-12-17T17:11:27.427Z,1.07
2018-12-17T17:13:55.768Z,1.30
2018-12-17T17:16:24.113Z,0.87
2018-12-17T17:18:52.514Z,1.03
2018-12-17T17:21:20.825Z,1.07
2018-12-17T17:23:49.224Z,0.90
2018-12-17T17:26:17.509Z,0.60
2018-12-17T17:28:46.120Z,1.00
2018-12-17T17:31:14.412Z,0.87
2018-12-17T17:33:42.751Z,1.10
2018-12-17T17:36:11.047Z,0.70
2018-12-17T17:38:39.480Z,0.90
2018-12-17T17:41:07.873Z,0.97
2018-12-17T17:43:36.306Z,1.13
2018-12-17T17:46:04.788Z,1.00
2018-12-17T17:48:33.201Z,1.00
2018-12-17T17:51:01.617Z,1.50
2018-12-17T17:53:29.963Z,1.10
2018-12-17T17:55:58.365Z,0.90
2018-12-17T17:58:26.943Z,0.80
2018-12-17T18:00:55.313Z,0.87
2018-12-17T18:03:23.612Z,1.10
2018-12-17T18:05:51.914Z,0.80
2018-12-17T18:08:20.411Z,0.70
2018-12-17T18:10:48.707Z,0.90
2018-12-17T18:13:17.156Z,0.87
2018-12-17T18:15:45.435Z,0.90
2018-12-17T18:18:14.987Z,0.90
2018-12-17T18:20:43.562Z,0.83
2018-12-17T18:23:11.844Z,0.63
2018-12-17T18:25:40.212Z,1.10
2018-12-17T18:28:08.530Z,0.80
2018-12-17T18:30:36.823Z,1.07
2018-12-17T18:33:05.156Z,1.20
2018-12-17T18:35:33.649Z,0.90
2018-12-17T18:38:02.298Z,0.90
2018-12-17T18:40:30.702Z,0.90
2018-12-17T18:42:59.271Z,0.93
2018-12-17T18:45:27.705Z,0.93
2018-12-17T18:47:56.038Z,0.80
2018-12-17T18:50:24.413Z,0.70
2018-12-17T18:52:52.771Z,1.00
2018-12-17T18:55:21.120Z,0.70
2018-12-17T18:57:49.497Z,1.00
2018-12-17T19:00:18.490Z,0.80
2018-12-17T19:02:46.875Z,0.83
2018-12-17T19:05:15.293Z,0.87
2018-12-17T19:07:43.654Z,0.90
2018-12-17T19:10:12.119Z,0.97
2018-12-17T19:12:40.480Z,1.10
2018-12-17T19:15:09.064Z,1.47
2018-12-17T19:17:37.371Z,1.57
2018-12-17T19:20:07.416Z,1.07
2018-12-17T19:22:35.706Z,1.00
2018-12-17T19:25:05.048Z,1.10
2018-12-17T19:27:34.208Z,1.03
2018-12-17T19:30:02.780Z,0.90
2018-12-17T19:32:31.064Z,0.80
2018-12-17T19:34:59.371Z,0.90
2018-12-17T19:37:27.752Z,1.10
2018-12-17T19:39:56.067Z,1.10
2018-12-17T19:42:24.427Z,1.17
2018-12-17T19:44:52.913Z,1.20
2018-12-17T19:47:21.216Z,1.23
2018-12-17T19:49:49.512Z,1.23
2018-12-17T19:52:17.842Z,1.27
2018-12-17T19:54:46.480Z,0.93
2018-12-17T19:57:14.778Z,1.00
2018-12-17T19:59:43.076Z,0.77
2018-12-17T20:02:11.343Z,0.97
2018-12-17T20:04:39.687Z,0.83
2018-12-17T20:07:08.004Z,0.90
2018-12-17T20:09:36.543Z,1.30
2018-12-17T20:12:04.824Z,1.33
2018-12-17T20:14:33.132Z,1.10
2018-12-17T20:17:01.440Z,1.20
2018-12-17T20:19:29.788Z,1.20
2018-12-17T20:21:58.107Z,1.03
2018-12-17T20:24:26.412Z,1.37
2018-12-17T20:26:54.700Z,1.00
2018-12-17T20:29:23.013Z,0.80
2018-12-17T20:31:51.325Z,0.70
2018-12-17T20:34:19.752Z,0.97
2018-12-17T20:36:48.130Z,1.03
2018-12-17T20:39:16.516Z,0.90
2018-12-17T20:41:44.905Z,0.90
2018-12-17T20:44:13.190Z,0.90
2018-12-17T20:46:41.516Z,1.07
2018-12-17T20:49:09.804Z,1.17
2018-12-17T20:51:38.113Z,1.00
2018-12-17T20:54:06.505Z,0.90
2018-12-17T20:56:34.808Z,1.00
2018-12-17T20:59:03.275Z,0.80
2018-12-17T21:01:31.697Z,0.73
2018-12-17T21:04:00.341Z,1.23
2018-12-17T21:06:29.268Z,1.10
2018-12-17T21:08:58.234Z,1.10
2018-12-17T21:11:26.537Z,1.00
2018-12-17T21:13:54.941Z,0.90
2018-12-17T21:16:23.304Z,0.90
2018-12-17T21:18:51.636Z,0.90
2018-12-17T21:21:20.552Z,0.90
2018-12-17T21:23:49.006Z,1.07
2018-12-17T21:26:17.404Z,1.00
2018-12-17T21:28:45.825Z,0.80
2018-12-17T21:31:14.344Z,1.10
2018-12-17T21:33:42.765Z,0.80
2018-12-17T21:36:11.184Z,0.87
2018-12-17T21:38:39.786Z,1.13
2018-12-17T21:41:08.165Z,0.97
2018-12-17T21:43:36.525Z,0.90
2018-12-17T21:46:05.079Z,1.20
2018-12-17T21:48:33.617Z,0.83
2018-12-17T21:51:02.030Z,1.17
2018-12-17T21:53:30.344Z,0.77
2018-12-17T21:55:59.429Z,0.93
2018-12-17T21:58:28.981Z,1.00
2018-12-17T22:00:57.936Z,1.00
2018-12-17T22:03:26.760Z,1.00
2018-12-17T22:05:55.572Z,1.07
2018-12-17T22:08:23.908Z,0.90
2018-12-17T22:10:52.216Z,0.93
2018-12-17T22:13:20.744Z,1.00
2018-12-17T22:15:49.275Z,1.10
2018-12-17T22:18:17.712Z,0.73
2018-12-17T22:20:46.128Z,1.07
2018-12-17T22:23:14.592Z,1.00
2018-12-17T22:25:42.957Z,0.90
2018-12-17T22:28:11.792Z,0.90
2018-12-17T22:30:40.845Z,1.00
2018-12-17T22:33:09.157Z,1.33
2018-12-17T22:35:37.498Z,1.00
2018-12-17T22:38:05.828Z,0.83
2018-12-17T22:40:34.157Z,0.97
2018-12-17T22:43:02.509Z,1.07
2018-12-17T22:45:30.825Z,1.10
2018-12-17T22:47:59.157Z,1.17
2018-12-17T22:50:27.481Z,0.73
2018-12-17T22:52:55.826Z,1.13
2018-12-17T22:55:24.168Z,0.90
2018-12-17T22:57:52.476Z,0.90
2018-12-17T23:00:20.793Z,1.17
2018-12-17T23:02:49.135Z,0.63
2018-12-17T23:05:17.495Z,1.10
2018-12-17T23:07:46.128Z,1.00
2018-12-17T23:10:26.095Z,1.07
2018-12-17T23:13:05.844Z,1.60
2018-12-17T23:15:45.457Z,1.00
2018-12-17T23:18:14.330Z,1.10
2018-12-17T23:20:43.340Z,0.90
2018-12-17T23:23:12.051Z,1.03
2018-12-17T23:25:40.425Z,1.13
2018-12-17T23:28:08.901Z,1.00
2018-12-17T23:30:37.430Z,1.40
2018-12-17T23:33:05.892Z,0.90
2018-12-17T23:35:34.364Z,0.87
2018-12-17T23:38:02.832Z,0.80
2018-12-17T23:40:31.293Z,0.90
2018-12-17T23:42:59.682Z,0.60
2018-12-17T23:45:28.233Z,0.90
2018-12-17T23:47:56.524Z,1.03
2018-12-17T23:50:24.850Z,1.10
2018-12-17T23:52:53.619Z,1.20
2018-12-17T23:55:22.188Z,1.13
2018-12-17T23:57:51.630Z,1.00
